sensor_id;sensor_type;location;lat;lon;timestamp;P1;durP1;ratioP1;P2;durP2;ratioP2
6432;SDS011;3249;42.690;23.260;2022-09-01T00:01:49;34.90;;;25.93;;
6432;SDS011;3249;42.690;23.260;2022-09-01T00:04:20;33.33;;;24.73;;
6432;SDS011;3249;42.690;23.260;2022-09-01T00:06:49;34.00;;;24.47;;
6432;SDS011;3249;42.690;23.260;2022-09-01T00:09:16;33.03;;;23.83;;
6432;SDS011;3249;42.690;23.260;2022-09-01T00:11:44;35.57;;;25.40;;
6432;SDS011;3249;42.690;23.260;2022-09-01T00:14:13;35.37;;;24.03;;
6432;SDS011;3249;42.690;23.260;2022-09-01T00:16:39;22.93;;;20.63;;
6432;SDS011;3249;42.690;23.260;2022-09-01T00:19:04;25.93;;;20.93;;
6432;SDS011;3249;42.690;23.260;2022-09-01T00:21:31;24.30;;;21.10;;
6432;SDS011;3249;42.690;23.260;2022-09-01T00:23:59;22.10;;;19.33;;
6432;SDS011;3249;42.690;23.260;2022-09-01T00:26:25;25.17;;;20.33;;
6432;SDS011;3249;42.690;23.260;2022-09-01T00:28:51;21.70;;;19.40;;
6432;SDS011;3249;42.690;23.260;2022-09-01T00:31:17;25.03;;;20.83;;
6432;SDS011;3249;42.690;23.260;2022-09-01T00:33:46;22.87;;;19.27;;
6432;SDS011;3249;42.690;23.260;2022-09-01T00:36:12;22.93;;;20.40;;
6432;SDS011;3249;42.690;23.260;2022-09-01T00:38:38;25.33;;;20.87;;
6432;SDS011;3249;42.690;23.260;2022-09-01T00:41:04;27.20;;;20.53;;
6432;SDS011;3249;42.690;23.260;2022-09-01T00:46:04;22.03;;;19.70;;
6432;SDS011;3249;42.690;23.260;2022-09-01T00:48:30;25.60;;;18.90;;
6432;SDS011;3249;42.690;23.260;2022-09-01T00:50:56;23.77;;;20.20;;
6432;SDS011;3249;42.690;23.260;2022-09-01T00:53:22;20.87;;;18.67;;
6432;SDS011;3249;42.690;23.260;2022-09-01T00:55:48;37.27;;;20.90;;
6432;SDS011;3249;42.690;23.260;2022-09-01T00:58:14;22.57;;;20.27;;
6432;SDS011;3249;42.690;23.260;2022-09-01T01:00:39;22.87;;;20.40;;
6432;SDS011;3249;42.690;23.260;2022-09-01T01:03:08;21.23;;;18.93;;
6432;SDS011;3249;42.690;23.260;2022-09-01T01:05:37;22.43;;;20.07;;
6432;SDS011;3249;42.690;23.260;2022-09-01T01:08:05;23.07;;;20.67;;
6432;SDS011;3249;42.690;23.260;2022-09-01T01:10:32;23.23;;;19.33;;
6432;SDS011;3249;42.690;23.260;2022-09-01T01:13:04;21.10;;;18.90;;
6432;SDS011;3249;42.690;23.260;2022-09-01T01:15:32;22.27;;;19.97;;
6432;SDS011;3249;42.690;23.260;2022-09-01T01:17:58;22.53;;;20.13;;
6432;SDS011;3249;42.690;23.260;2022-09-01T01:20:25;23.73;;;19.97;;
6432;SDS011;3249;42.690;23.260;2022-09-01T01:23:16;22.17;;;19.57;;
6432;SDS011;3249;42.690;23.260;2022-09-01T01:25:58;20.00;;;18.10;;
6432;SDS011;3249;42.690;23.260;2022-09-01T01:28:26;22.17;;;19.73;;
6432;SDS011;3249;42.690;23.260;2022-09-01T01:31:04;21.73;;;19.30;;
6432;SDS011;3249;42.690;23.260;2022-09-01T01:33:49;26.17;;;21.23;;
6432;SDS011;3249;42.690;23.260;2022-09-01T01:36:19;29.23;;;21.20;;
6432;SDS011;3249;42.690;23.260;2022-09-01T01:38:55;26.03;;;21.47;;
6432;SDS011;3249;42.690;23.260;2022-09-01T01:41:27;26.40;;;21.60;;
6432;SDS011;3249;42.690;23.260;2022-09-01T01:43:54;27.77;;;20.67;;
6432;SDS011;3249;42.690;23.260;2022-09-01T01:46:21;22.87;;;20.50;;
6432;SDS011;3249;42.690;23.260;2022-09-01T01:48:46;26.73;;;21.73;;
6432;SDS011;3249;42.690;23.260;2022-09-01T01:51:12;26.40;;;22.13;;
6432;SDS011;3249;42.690;23.260;2022-09-01T01:53:41;29.47;;;23.93;;
6432;SDS011;3249;42.690;23.260;2022-09-01T01:56:07;30.80;;;24.57;;
6432;SDS011;3249;42.690;23.260;2022-09-01T01:58:35;28.70;;;23.37;;
6432;SDS011;3249;42.690;23.260;2022-09-01T02:01:01;34.73;;;23.10;;
6432;SDS011;3249;42.690;23.260;2022-09-01T02:03:31;40.30;;;26.30;;
6432;SDS011;3249;42.690;23.260;2022-09-01T02:06:02;29.33;;;22.93;;
6432;SDS011;3249;42.690;23.260;2022-09-01T02:08:32;30.97;;;22.23;;
6432;SDS011;3249;42.690;23.260;2022-09-01T02:11:00;29.43;;;23.10;;
6432;SDS011;3249;42.690;23.260;2022-09-01T02:13:26;31.10;;;22.73;;
6432;SDS011;3249;42.690;23.260;2022-09-01T02:15:55;28.90;;;24.27;;
6432;SDS011;3249;42.690;23.260;2022-09-01T02:18:23;32.07;;;23.87;;
6432;SDS011;3249;42.690;23.260;2022-09-01T02:20:52;37.60;;;24.90;;
6432;SDS011;3249;42.690;23.260;2022-09-01T02:23:19;31.43;;;23.97;;
6432;SDS011;3249;42.690;23.260;2022-09-01T02:25:49;32.50;;;23.73;;
6432;SDS011;3249;42.690;23.260;2022-09-01T02:28:17;32.60;;;23.83;;
6432;SDS011;3249;42.690;23.260;2022-09-01T02:30:44;30.97;;;22.20;;
6432;SDS011;3249;42.690;23.260;2022-09-01T02:33:11;23.70;;;20.40;;
6432;SDS011;3249;42.690;23.260;2022-09-01T02:35:47;31.50;;;23.87;;
6432;SDS011;3249;42.690;23.260;2022-09-01T02:38:15;27.27;;;22.77;;
6432;SDS011;3249;42.690;23.260;2022-09-01T02:40:44;32.40;;;21.77;;
6432;SDS011;3249;42.690;23.260;2022-09-01T02:43:10;26.37;;;21.53;;
6432;SDS011;3249;42.690;23.260;2022-09-01T02:45:37;26.33;;;21.70;;
6432;SDS011;3249;42.690;23.260;2022-09-01T02:48:04;23.37;;;20.40;;
6432;SDS011;3249;42.690;23.260;2022-09-01T02:50:34;26.73;;;22.50;;
6432;SDS011;3249;42.690;23.260;2022-09-01T02:53:04;28.17;;;21.97;;
6432;SDS011;3249;42.690;23.260;2022-09-01T02:55:36;29.03;;;21.90;;
6432;SDS011;3249;42.690;23.260;2022-09-01T02:58:02;34.67;;;23.40;;
6432;SDS011;3249;42.690;23.260;2022-09-01T03:00:28;35.33;;;23.00;;
6432;SDS011;3249;42.690;23.260;2022-09-01T03:02:56;34.20;;;23.27;;
6432;SDS011;3249;42.690;23.260;2022-09-01T03:05:24;34.47;;;23.17;;
6432;SDS011;3249;42.690;23.260;2022-09-01T03:07:58;31.73;;;22.13;;
6432;SDS011;3249;42.690;23.260;2022-09-01T03:10:27;28.93;;;23.10;;
6432;SDS011;3249;42.690;23.260;2022-09-01T03:13:06;31.83;;;21.67;;
6432;SDS011;3249;42.690;23.260;2022-09-01T03:15:35;29.10;;;20.00;;
6432;SDS011;3249;42.690;23.260;2022-09-01T03:18:02;26.27;;;22.07;;
6432;SDS011;3249;42.690;23.260;2022-09-01T03:20:29;27.37;;;19.93;;
6432;SDS011;3249;42.690;23.260;2022-09-01T03:22:58;26.87;;;21.07;;
6432;SDS011;3249;42.690;23.260;2022-09-01T03:25:28;31.70;;;19.97;;
6432;SDS011;3249;42.690;23.260;2022-09-01T03:27:54;29.80;;;20.53;;
6432;SDS011;3249;42.690;23.260;2022-09-01T03:30:26;23.00;;;19.93;;
6432;SDS011;3249;42.690;23.260;2022-09-01T03:32:54;32.20;;;19.73;;
6432;SDS011;3249;42.690;23.260;2022-09-01T03:35:21;24.10;;;19.50;;
6432;SDS011;3249;42.690;23.260;2022-09-01T03:37:47;26.60;;;20.57;;
6432;SDS011;3249;42.690;23.260;2022-09-01T03:40:13;23.80;;;21.23;;
6432;SDS011;3249;42.690;23.260;2022-09-01T03:42:40;23.33;;;20.03;;
6432;SDS011;3249;42.690;23.260;2022-09-01T03:45:05;24.87;;;20.73;;
6432;SDS011;3249;42.690;23.260;2022-09-01T03:47:37;24.37;;;21.67;;
6432;SDS011;3249;42.690;23.260;2022-09-01T03:50:11;26.53;;;20.97;;
6432;SDS011;3249;42.690;23.260;2022-09-01T03:52:46;23.93;;;20.87;;
6432;SDS011;3249;42.690;23.260;2022-09-01T03:55:18;26.83;;;20.50;;
6432;SDS011;3249;42.690;23.260;2022-09-01T03:57:55;23.30;;;20.80;;
6432;SDS011;3249;42.690;23.260;2022-09-01T04:00:24;21.93;;;18.80;;
6432;SDS011;3249;42.690;23.260;2022-09-01T04:02:54;21.70;;;18.20;;
6432;SDS011;3249;42.690;23.260;2022-09-01T04:05:22;21.27;;;18.87;;
6432;SDS011;3249;42.690;23.260;2022-09-01T04:07:53;25.77;;;20.50;;
6432;SDS011;3249;42.690;23.260;2022-09-01T04:10:20;23.87;;;20.90;;
6432;SDS011;3249;42.690;23.260;2022-09-01T04:12:46;22.90;;;18.97;;
6432;SDS011;3249;42.690;23.260;2022-09-01T04:15:13;26.00;;;21.63;;
6432;SDS011;3249;42.690;23.260;2022-09-01T04:17:41;25.57;;;20.43;;
6432;SDS011;3249;42.690;23.260;2022-09-01T04:20:28;22.43;;;20.07;;
6432;SDS011;3249;42.690;23.260;2022-09-01T04:22:53;25.93;;;21.63;;
6432;SDS011;3249;42.690;23.260;2022-09-01T04:25:20;31.17;;;22.77;;
6432;SDS011;3249;42.690;23.260;2022-09-01T04:27:50;40.57;;;25.00;;
6432;SDS011;3249;42.690;23.260;2022-09-01T04:30:21;35.23;;;23.80;;
6432;SDS011;3249;42.690;23.260;2022-09-01T04:32:57;37.13;;;25.40;;
6432;SDS011;3249;42.690;23.260;2022-09-01T04:35:22;40.77;;;26.60;;
6432;SDS011;3249;42.690;23.260;2022-09-01T04:37:57;42.03;;;24.87;;
6432;SDS011;3249;42.690;23.260;2022-09-01T04:40:24;39.67;;;27.83;;
6432;SDS011;3249;42.690;23.260;2022-09-01T04:42:51;39.57;;;24.87;;
6432;SDS011;3249;42.690;23.260;2022-09-01T04:45:16;65.80;;;26.87;;
6432;SDS011;3249;42.690;23.260;2022-09-01T04:47:44;87.00;;;26.67;;
6432;SDS011;3249;42.690;23.260;2022-09-01T04:50:11;45.10;;;24.90;;
6432;SDS011;3249;42.690;23.260;2022-09-01T04:52:41;43.13;;;26.60;;
6432;SDS011;3249;42.690;23.260;2022-09-01T04:55:11;60.30;;;26.37;;
6432;SDS011;3249;42.690;23.260;2022-09-01T04:57:46;73.50;;;26.10;;
6432;SDS011;3249;42.690;23.260;2022-09-01T05:00:16;36.70;;;24.77;;
6432;SDS011;3249;42.690;23.260;2022-09-01T05:02:47;27.47;;;22.50;;
6432;SDS011;3249;42.690;23.260;2022-09-01T05:05:18;22.73;;;20.33;;
6432;SDS011;3249;42.690;23.260;2022-09-01T05:07:46;21.80;;;19.23;;
6432;SDS011;3249;42.690;23.260;2022-09-01T05:10:17;25.43;;;20.97;;
6432;SDS011;3249;42.690;23.260;2022-09-01T05:12:44;25.27;;;21.70;;
6432;SDS011;3249;42.690;23.260;2022-09-01T05:15:12;23.57;;;21.17;;
6432;SDS011;3249;42.690;23.260;2022-09-01T05:17:39;25.83;;;22.73;;
6432;SDS011;3249;42.690;23.260;2022-09-01T05:20:05;24.97;;;22.27;;
6432;SDS011;3249;42.690;23.260;2022-09-01T05:22:32;26.30;;;23.53;;
6432;SDS011;3249;42.690;23.260;2022-09-01T05:24:58;27.10;;;22.87;;
6432;SDS011;3249;42.690;23.260;2022-09-01T05:27:35;25.73;;;23.13;;
6432;SDS011;3249;42.690;23.260;2022-09-01T05:30:03;26.97;;;23.73;;
6432;SDS011;3249;42.690;23.260;2022-09-01T05:32:32;23.23;;;20.67;;
6432;SDS011;3249;42.690;23.260;2022-09-01T05:35:01;28.20;;;23.27;;
6432;SDS011;3249;42.690;23.260;2022-09-01T05:37:30;24.77;;;22.17;;
6432;SDS011;3249;42.690;23.260;2022-09-01T05:39:56;23.83;;;20.90;;
6432;SDS011;3249;42.690;23.260;2022-09-01T05:42:22;26.50;;;21.90;;
6432;SDS011;3249;42.690;23.260;2022-09-01T05:44:48;26.50;;;21.27;;
6432;SDS011;3249;42.690;23.260;2022-09-01T05:47:14;23.13;;;20.40;;
6432;SDS011;3249;42.690;23.260;2022-09-01T05:49:40;21.17;;;19.10;;
6432;SDS011;3249;42.690;23.260;2022-09-01T05:52:05;21.73;;;19.63;;
6432;SDS011;3249;42.690;23.260;2022-09-01T05:54:33;22.53;;;20.17;;
6432;SDS011;3249;42.690;23.260;2022-09-01T05:56:59;21.20;;;19.03;;
6432;SDS011;3249;42.690;23.260;2022-09-01T05:59:27;23.20;;;20.90;;
6432;SDS011;3249;42.690;23.260;2022-09-01T06:01:57;24.03;;;21.53;;
6432;SDS011;3249;42.690;23.260;2022-09-01T06:04:23;23.13;;;20.63;;
6432;SDS011;3249;42.690;23.260;2022-09-01T06:06:49;24.20;;;21.80;;
6432;SDS011;3249;42.690;23.260;2022-09-01T06:09:17;24.80;;;22.20;;
6432;SDS011;3249;42.690;23.260;2022-09-01T06:11:46;25.13;;;22.33;;
6432;SDS011;3249;42.690;23.260;2022-09-01T06:14:15;28.20;;;23.37;;
6432;SDS011;3249;42.690;23.260;2022-09-01T06:16:42;28.17;;;24.27;;
6432;SDS011;3249;42.690;23.260;2022-09-01T06:19:08;30.87;;;27.33;;
6432;SDS011;3249;42.690;23.260;2022-09-01T06:21:34;33.37;;;27.37;;
6432;SDS011;3249;42.690;23.260;2022-09-01T06:24:02;37.90;;;32.97;;
6432;SDS011;3249;42.690;23.260;2022-09-01T06:26:29;39.30;;;34.63;;
6432;SDS011;3249;42.690;23.260;2022-09-01T06:28:57;40.87;;;33.73;;
6432;SDS011;3249;42.690;23.260;2022-09-01T06:31:26;45.63;;;32.80;;
6432;SDS011;3249;42.690;23.260;2022-09-01T06:33:58;36.97;;;32.20;;
6432;SDS011;3249;42.690;23.260;2022-09-01T06:36:25;35.67;;;31.47;;
6432;SDS011;3249;42.690;23.260;2022-09-01T06:38:51;39.47;;;31.13;;
6432;SDS011;3249;42.690;23.260;2022-09-01T06:41:19;39.63;;;30.70;;
6432;SDS011;3249;42.690;23.260;2022-09-01T06:43:46;36.23;;;32.10;;
6432;SDS011;3249;42.690;23.260;2022-09-01T06:46:15;36.90;;;30.93;;
6432;SDS011;3249;42.690;23.260;2022-09-01T06:48:41;36.67;;;32.57;;
6432;SDS011;3249;42.690;23.260;2022-09-01T06:51:10;39.60;;;33.20;;
6432;SDS011;3249;42.690;23.260;2022-09-01T06:53:41;39.47;;;34.47;;
6432;SDS011;3249;42.690;23.260;2022-09-01T06:56:08;39.73;;;34.53;;
6432;SDS011;3249;42.690;23.260;2022-09-01T06:58:37;40.67;;;32.73;;
6432;SDS011;3249;42.690;23.260;2022-09-01T07:01:09;39.63;;;32.90;;
6432;SDS011;3249;42.690;23.260;2022-09-01T07:03:39;38.17;;;32.30;;
6432;SDS011;3249;42.690;23.260;2022-09-01T07:06:09;42.53;;;32.67;;
6432;SDS011;3249;42.690;23.260;2022-09-01T07:08:35;50.10;;;40.20;;
6432;SDS011;3249;42.690;23.260;2022-09-01T07:11:04;47.13;;;34.13;;
6432;SDS011;3249;42.690;23.260;2022-09-01T07:13:32;38.50;;;31.33;;
6432;SDS011;3249;42.690;23.260;2022-09-01T07:15:59;36.00;;;29.70;;
6432;SDS011;3249;42.690;23.260;2022-09-01T07:18:28;37.57;;;30.87;;
6432;SDS011;3249;42.690;23.260;2022-09-01T07:20:55;37.77;;;30.77;;
6432;SDS011;3249;42.690;23.260;2022-09-01T07:23:21;37.00;;;31.07;;
6432;SDS011;3249;42.690;23.260;2022-09-01T07:25:48;41.27;;;32.47;;
6432;SDS011;3249;42.690;23.260;2022-09-01T07:28:23;38.83;;;32.03;;
6432;SDS011;3249;42.690;23.260;2022-09-01T07:30:54;40.97;;;33.30;;
6432;SDS011;3249;42.690;23.260;2022-09-01T07:33:20;38.73;;;32.70;;
6432;SDS011;3249;42.690;23.260;2022-09-01T07:35:49;39.90;;;32.80;;
6432;SDS011;3249;42.690;23.260;2022-09-01T07:38:18;37.40;;;33.27;;
6432;SDS011;3249;42.690;23.260;2022-09-01T07:40:46;44.57;;;33.53;;
6432;SDS011;3249;42.690;23.260;2022-09-01T07:43:17;35.87;;;30.77;;
6432;SDS011;3249;42.690;23.260;2022-09-01T07:45:49;44.10;;;33.07;;
6432;SDS011;3249;42.690;23.260;2022-09-01T07:48:23;38.07;;;30.70;;
6432;SDS011;3249;42.690;23.260;2022-09-01T07:50:53;40.07;;;32.30;;
6432;SDS011;3249;42.690;23.260;2022-09-01T07:53:25;36.30;;;31.20;;
6432;SDS011;3249;42.690;23.260;2022-09-01T07:55:55;34.60;;;30.97;;
6432;SDS011;3249;42.690;23.260;2022-09-01T07:58:24;39.20;;;32.80;;
6432;SDS011;3249;42.690;23.260;2022-09-01T08:00:52;43.07;;;32.57;;
6432;SDS011;3249;42.690;23.260;2022-09-01T08:03:21;38.20;;;33.07;;
6432;SDS011;3249;42.690;23.260;2022-09-01T08:05:49;41.50;;;32.27;;
6432;SDS011;3249;42.690;23.260;2022-09-01T08:08:21;42.37;;;33.13;;
6432;SDS011;3249;42.690;23.260;2022-09-01T08:10:47;40.50;;;32.03;;
6432;SDS011;3249;42.690;23.260;2022-09-01T08:13:13;35.93;;;32.03;;
6432;SDS011;3249;42.690;23.260;2022-09-01T08:15:38;37.63;;;30.70;;
6432;SDS011;3249;42.690;23.260;2022-09-01T08:18:04;33.53;;;28.47;;
6432;SDS011;3249;42.690;23.260;2022-09-01T08:20:30;36.90;;;29.67;;
6432;SDS011;3249;42.690;23.260;2022-09-01T08:22:59;36.47;;;32.20;;
6432;SDS011;3249;42.690;23.260;2022-09-01T08:25:25;32.53;;;27.97;;
6432;SDS011;3249;42.690;23.260;2022-09-01T08:27:50;32.57;;;26.13;;
6432;SDS011;3249;42.690;23.260;2022-09-01T08:30:16;32.90;;;26.33;;
6432;SDS011;3249;42.690;23.260;2022-09-01T08:32:41;28.33;;;25.00;;
6432;SDS011;3249;42.690;23.260;2022-09-01T08:35:08;35.87;;;27.33;;
6432;SDS011;3249;42.690;23.260;2022-09-01T08:37:35;34.93;;;26.27;;
6432;SDS011;3249;42.690;23.260;2022-09-01T08:40:01;29.00;;;25.90;;
6432;SDS011;3249;42.690;23.260;2022-09-01T08:47:52;27.13;;;24.30;;
6432;SDS011;3249;42.690;23.260;2022-09-01T08:50:19;24.93;;;22.50;;
6432;SDS011;3249;42.690;23.260;2022-09-01T08:52:50;25.23;;;22.17;;
6432;SDS011;3249;42.690;23.260;2022-09-01T08:57:51;26.57;;;20.43;;
6432;SDS011;3249;42.690;23.260;2022-09-01T09:00:25;21.10;;;18.97;;
6432;SDS011;3249;42.690;23.260;2022-09-01T09:03:06;22.83;;;20.53;;
6432;SDS011;3249;42.690;23.260;2022-09-01T09:14:05;23.70;;;19.47;;
6432;SDS011;3249;42.690;23.260;2022-09-01T09:16:54;22.93;;;18.33;;
6432;SDS011;3249;42.690;23.260;2022-09-01T09:21:55;18.10;;;15.73;;
6432;SDS011;3249;42.690;23.260;2022-09-01T09:26:56;20.33;;;16.00;;
6432;SDS011;3249;42.690;23.260;2022-09-01T09:29:26;19.33;;;16.70;;
6432;SDS011;3249;42.690;23.260;2022-09-01T09:34:47;20.27;;;18.13;;
6432;SDS011;3249;42.690;23.260;2022-09-01T09:37:22;20.03;;;16.93;;
6432;SDS011;3249;42.690;23.260;2022-09-01T09:40:30;18.60;;;16.43;;
6432;SDS011;3249;42.690;23.260;2022-09-01T09:45:27;14.57;;;13.07;;
6432;SDS011;3249;42.690;23.260;2022-09-01T09:47:54;15.13;;;13.73;;
6432;SDS011;3249;42.690;23.260;2022-09-01T09:56:36;15.43;;;13.93;;
6432;SDS011;3249;42.690;23.260;2022-09-01T09:58:43;14.87;;;13.10;;
6432;SDS011;3249;42.690;23.260;2022-09-01T10:03:56;15.63;;;14.13;;
6432;SDS011;3249;42.690;23.260;2022-09-01T10:08:58;15.63;;;13.63;;
6432;SDS011;3249;42.690;23.260;2022-09-01T10:11:27;15.37;;;13.77;;
6432;SDS011;3249;42.690;23.260;2022-09-01T10:13:57;17.23;;;13.53;;
6432;SDS011;3249;42.690;23.260;2022-09-01T10:16:27;16.67;;;13.43;;
6432;SDS011;3249;42.690;23.260;2022-09-01T10:18:56;14.70;;;13.13;;
6432;SDS011;3249;42.690;23.260;2022-09-01T10:21:32;17.27;;;14.43;;
6432;SDS011;3249;42.690;23.260;2022-09-01T10:23:59;13.43;;;12.13;;
6432;SDS011;3249;42.690;23.260;2022-09-01T10:26:30;14.23;;;12.90;;
6432;SDS011;3249;42.690;23.260;2022-09-01T10:29:12;22.37;;;13.60;;
6432;SDS011;3249;42.690;23.260;2022-09-01T10:31:43;15.93;;;12.37;;
6432;SDS011;3249;42.690;23.260;2022-09-01T10:34:10;19.80;;;13.60;;
6432;SDS011;3249;42.690;23.260;2022-09-01T10:36:39;13.93;;;12.70;;
6432;SDS011;3249;42.690;23.260;2022-09-01T10:39:14;17.23;;;11.53;;
6432;SDS011;3249;42.690;23.260;2022-09-01T10:41:43;16.97;;;12.23;;
6432;SDS011;3249;42.690;23.260;2022-09-01T10:46:56;13.63;;;11.83;;
6432;SDS011;3249;42.690;23.260;2022-09-01T10:51:56;13.77;;;12.23;;
6432;SDS011;3249;42.690;23.260;2022-09-01T10:57:02;20.23;;;13.13;;
6432;SDS011;3249;42.690;23.260;2022-09-01T10:59:34;14.20;;;12.30;;
6432;SDS011;3249;42.690;23.260;2022-09-01T11:02:10;14.53;;;12.97;;
6432;SDS011;3249;42.690;23.260;2022-09-01T11:09:46;18.93;;;13.27;;
6432;SDS011;3249;42.690;23.260;2022-09-01T11:15:40;16.07;;;12.87;;
6432;SDS011;3249;42.690;23.260;2022-09-01T11:18:27;17.13;;;13.10;;
6432;SDS011;3249;42.690;23.260;2022-09-01T11:21:13;18.07;;;13.63;;
6432;SDS011;3249;42.690;23.260;2022-09-01T11:23:50;17.40;;;13.80;;
6432;SDS011;3249;42.690;23.260;2022-09-01T11:32:17;15.10;;;13.13;;
6432;SDS011;3249;42.690;23.260;2022-09-01T11:34:45;17.77;;;14.30;;
6432;SDS011;3249;42.690;23.260;2022-09-01T11:37:15;18.93;;;13.33;;
6432;SDS011;3249;42.690;23.260;2022-09-01T11:39:48;16.33;;;13.77;;
6432;SDS011;3249;42.690;23.260;2022-09-01T11:47:31;14.63;;;13.07;;
6432;SDS011;3249;42.690;23.260;2022-09-01T11:52:40;15.63;;;12.33;;
6432;SDS011;3249;42.690;23.260;2022-09-01T11:55:07;14.63;;;13.23;;
6432;SDS011;3249;42.690;23.260;2022-09-01T11:57:37;16.97;;;12.73;;
6432;SDS011;3249;42.690;23.260;2022-09-01T12:00:06;12.43;;;11.20;;
6432;SDS011;3249;42.690;23.260;2022-09-01T12:02:46;17.60;;;11.70;;
6432;SDS011;3249;42.690;23.260;2022-09-01T12:05:33;14.57;;;11.97;;
6432;SDS011;3249;42.690;23.260;2022-09-01T12:08:03;14.07;;;12.33;;
6432;SDS011;3249;42.690;23.260;2022-09-01T12:10:39;16.00;;;11.77;;
6432;SDS011;3249;42.690;23.260;2022-09-01T12:13:23;14.53;;;12.40;;
6432;SDS011;3249;42.690;23.260;2022-09-01T12:15:56;13.33;;;11.93;;
6432;SDS011;3249;42.690;23.260;2022-09-01T12:18:29;16.57;;;12.13;;
6432;SDS011;3249;42.690;23.260;2022-09-01T12:20:57;12.43;;;11.17;;
6432;SDS011;3249;42.690;23.260;2022-09-01T12:23:28;12.43;;;11.17;;
6432;SDS011;3249;42.690;23.260;2022-09-01T12:26:07;12.70;;;11.37;;
6432;SDS011;3249;42.690;23.260;2022-09-01T12:28:35;13.43;;;11.70;;
6432;SDS011;3249;42.690;23.260;2022-09-01T12:31:05;13.60;;;11.63;;
6432;SDS011;3249;42.690;23.260;2022-09-01T12:33:36;11.87;;;10.77;;
6432;SDS011;3249;42.690;23.260;2022-09-01T12:39:18;12.33;;;11.13;;
6432;SDS011;3249;42.690;23.260;2022-09-01T12:41:44;13.63;;;12.10;;
6432;SDS011;3249;42.690;23.260;2022-09-01T12:44:41;13.53;;;11.93;;
6432;SDS011;3249;42.690;23.260;2022-09-01T12:47:12;12.07;;;10.87;;
6432;SDS011;3249;42.690;23.260;2022-09-01T12:49:56;14.87;;;11.47;;
6432;SDS011;3249;42.690;23.260;2022-09-01T12:52:25;15.03;;;12.23;;
6432;SDS011;3249;42.690;23.260;2022-09-01T12:57:25;13.43;;;12.23;;
6432;SDS011;3249;42.690;23.260;2022-09-01T13:00:08;12.77;;;11.70;;
6432;SDS011;3249;42.690;23.260;2022-09-01T13:02:44;16.07;;;11.80;;
6432;SDS011;3249;42.690;23.260;2022-09-01T13:05:22;15.50;;;11.97;;
6432;SDS011;3249;42.690;23.260;2022-09-01T13:07:48;13.17;;;11.70;;
6432;SDS011;3249;42.690;23.260;2022-09-01T13:10:16;18.23;;;13.10;;
6432;SDS011;3249;42.690;23.260;2022-09-01T13:12:42;14.93;;;11.33;;
6432;SDS011;3249;42.690;23.260;2022-09-01T13:15:08;13.77;;;12.33;;
6432;SDS011;3249;42.690;23.260;2022-09-01T13:17:35;14.33;;;11.73;;
6432;SDS011;3249;42.690;23.260;2022-09-01T13:20:02;15.20;;;12.00;;
6432;SDS011;3249;42.690;23.260;2022-09-01T13:22:31;13.30;;;11.93;;
6432;SDS011;3249;42.690;23.260;2022-09-01T13:24:57;14.10;;;11.90;;
6432;SDS011;3249;42.690;23.260;2022-09-01T13:27:22;13.77;;;12.37;;
6432;SDS011;3249;42.690;23.260;2022-09-01T13:29:48;15.00;;;12.43;;
6432;SDS011;3249;42.690;23.260;2022-09-01T13:32:14;14.17;;;12.67;;
6432;SDS011;3249;42.690;23.260;2022-09-01T13:34:41;16.57;;;13.07;;
6432;SDS011;3249;42.690;23.260;2022-09-01T13:37:06;14.17;;;12.53;;
6432;SDS011;3249;42.690;23.260;2022-09-01T13:39:32;14.90;;;13.37;;
6432;SDS011;3249;42.690;23.260;2022-09-01T13:41:57;13.77;;;11.90;;
6432;SDS011;3249;42.690;23.260;2022-09-01T13:44:23;15.60;;;13.23;;
6432;SDS011;3249;42.690;23.260;2022-09-01T13:46:48;17.17;;;13.37;;
6432;SDS011;3249;42.690;23.260;2022-09-01T13:49:14;17.20;;;12.80;;
6432;SDS011;3249;42.690;23.260;2022-09-01T13:51:39;13.43;;;12.13;;
6432;SDS011;3249;42.690;23.260;2022-09-01T13:54:04;17.00;;;13.53;;
6432;SDS011;3249;42.690;23.260;2022-09-01T13:56:30;15.20;;;12.93;;
6432;SDS011;3249;42.690;23.260;2022-09-01T13:58:55;19.20;;;13.03;;
6432;SDS011;3249;42.690;23.260;2022-09-01T14:01:21;15.37;;;12.37;;
6432;SDS011;3249;42.690;23.260;2022-09-01T14:03:47;14.13;;;12.73;;
6432;SDS011;3249;42.690;23.260;2022-09-01T14:06:13;16.17;;;12.90;;
6432;SDS011;3249;42.690;23.260;2022-09-01T14:08:39;17.13;;;12.00;;
6432;SDS011;3249;42.690;23.260;2022-09-01T14:11:05;15.67;;;12.33;;
6432;SDS011;3249;42.690;23.260;2022-09-01T14:13:31;14.73;;;13.23;;
6432;SDS011;3249;42.690;23.260;2022-09-01T14:15:58;17.93;;;11.13;;
6432;SDS011;3249;42.690;23.260;2022-09-01T14:18:24;13.53;;;12.40;;
6432;SDS011;3249;42.690;23.260;2022-09-01T14:21:01;13.07;;;10.53;;
6432;SDS011;3249;42.690;23.260;2022-09-01T14:23:27;11.17;;;10.10;;
6432;SDS011;3249;42.690;23.260;2022-09-01T14:25:52;15.47;;;11.53;;
6432;SDS011;3249;42.690;23.260;2022-09-01T14:28:19;12.20;;;10.50;;
6432;SDS011;3249;42.690;23.260;2022-09-01T14:30:46;11.13;;;10.17;;
6432;SDS011;3249;42.690;23.260;2022-09-01T14:33:12;14.43;;;10.27;;
6432;SDS011;3249;42.690;23.260;2022-09-01T14:35:40;12.40;;;11.10;;
6432;SDS011;3249;42.690;23.260;2022-09-01T14:38:07;14.57;;;12.90;;
6432;SDS011;3249;42.690;23.260;2022-09-01T14:40:36;13.00;;;11.70;;
6432;SDS011;3249;42.690;23.260;2022-09-01T14:43:03;12.77;;;11.63;;
6432;SDS011;3249;42.690;23.260;2022-09-01T14:45:30;12.80;;;11.43;;
6432;SDS011;3249;42.690;23.260;2022-09-01T14:47:57;14.17;;;12.70;;
6432;SDS011;3249;42.690;23.260;2022-09-01T14:50:24;13.87;;;12.27;;
6432;SDS011;3249;42.690;23.260;2022-09-01T14:52:53;14.20;;;12.80;;
6432;SDS011;3249;42.690;23.260;2022-09-01T14:55:24;16.90;;;12.43;;
6432;SDS011;3249;42.690;23.260;2022-09-01T14:57:51;16.73;;;12.70;;
6432;SDS011;3249;42.690;23.260;2022-09-01T15:00:18;16.83;;;12.90;;
6432;SDS011;3249;42.690;23.260;2022-09-01T15:02:44;16.50;;;13.07;;
6432;SDS011;3249;42.690;23.260;2022-09-01T15:05:10;16.87;;;13.50;;
6432;SDS011;3249;42.690;23.260;2022-09-01T15:07:37;16.53;;;12.83;;
6432;SDS011;3249;42.690;23.260;2022-09-01T15:10:03;12.50;;;11.10;;
6432;SDS011;3249;42.690;23.260;2022-09-01T15:12:30;12.53;;;11.37;;
6432;SDS011;3249;42.690;23.260;2022-09-01T15:14:59;16.20;;;12.47;;
6432;SDS011;3249;42.690;23.260;2022-09-01T15:17:25;13.30;;;12.10;;
6432;SDS011;3249;42.690;23.260;2022-09-01T15:19:51;16.27;;;11.93;;
6432;SDS011;3249;42.690;23.260;2022-09-01T15:22:17;15.50;;;12.77;;
6432;SDS011;3249;42.690;23.260;2022-09-01T15:24:43;15.40;;;11.27;;
6432;SDS011;3249;42.690;23.260;2022-09-01T15:27:08;13.67;;;12.10;;
6432;SDS011;3249;42.690;23.260;2022-09-01T15:29:35;13.27;;;11.87;;
6432;SDS011;3249;42.690;23.260;2022-09-01T15:32:10;13.77;;;12.43;;
6432;SDS011;3249;42.690;23.260;2022-09-01T15:34:36;14.93;;;12.63;;
6432;SDS011;3249;42.690;23.260;2022-09-01T15:37:02;16.30;;;12.23;;
6432;SDS011;3249;42.690;23.260;2022-09-01T15:39:28;13.30;;;12.10;;
6432;SDS011;3249;42.690;23.260;2022-09-01T15:41:53;12.67;;;11.37;;
6432;SDS011;3249;42.690;23.260;2022-09-01T15:44:20;13.50;;;11.67;;
6432;SDS011;3249;42.690;23.260;2022-09-01T15:46:46;15.63;;;12.17;;
6432;SDS011;3249;42.690;23.260;2022-09-01T15:49:11;14.40;;;12.87;;
6432;SDS011;3249;42.690;23.260;2022-09-01T15:51:41;16.20;;;13.30;;
6432;SDS011;3249;42.690;23.260;2022-09-01T15:56:35;18.27;;;13.50;;
6432;SDS011;3249;42.690;23.260;2022-09-01T15:59:01;19.37;;;14.00;;
6432;SDS011;3249;42.690;23.260;2022-09-01T16:01:28;14.53;;;13.17;;
6432;SDS011;3249;42.690;23.260;2022-09-01T16:03:57;16.73;;;13.73;;